createdAt,value
2023-03-16T00:00:20.325Z,9.74
2023-03-16T00:01:20.319Z,9.82
2023-03-16T00:02:20.396Z,9.78
2023-03-16T00:03:20.494Z,9.87
2023-03-16T00:04:20.288Z,9.66
2023-03-16T00:05:20.297Z,9.70
2023-03-16T00:06:20.298Z,9.51
2023-03-16T00:07:20.272Z,9.57
2023-03-16T00:08:20.273Z,9.80
2023-03-16T00:09:20.253Z,9.29
2023-03-16T00:10:20.251Z,9.58
2023-03-16T00:11:20.240Z,9.33
2023-03-16T00:12:20.240Z,9.47
2023-03-16T00:13:20.222Z,9.28
2023-03-16T00:14:20.209Z,9.46
2023-03-16T00:15:20.217Z,9.51
2023-03-16T00:16:20.238Z,9.51
2023-03-16T00:17:20.558Z,9.22
2023-03-16T00:18:20.175Z,9.49
2023-03-16T00:19:20.172Z,9.24
2023-03-16T00:20:20.146Z,9.44
2023-03-16T00:21:20.124Z,9.32
2023-03-16T00:22:20.113Z,9.17
2023-03-16T00:23:20.119Z,9.18
2023-03-16T00:24:20.084Z,9.32
2023-03-16T00:25:20.072Z,9.32
2023-03-16T00:26:20.050Z,9.12
2023-03-16T00:27:20.053Z,9.25
2023-03-16T00:28:20.029Z,8.93
2023-03-16T00:29:19.998Z,9.07
2023-03-16T00:30:20.006Z,9.04
2023-03-16T00:31:19.999Z,9.16
2023-03-16T00:32:19.985Z,8.98
2023-03-16T00:33:19.965Z,9.20
2023-03-16T00:34:19.930Z,9.03
2023-03-16T00:35:19.927Z,8.96
2023-03-16T00:36:19.906Z,8.94
2023-03-16T00:37:19.946Z,9.03
2023-03-16T00:38:19.888Z,9.04
2023-03-16T00:39:19.880Z,9.03
2023-03-16T00:40:19.889Z,9.07
2023-03-16T00:41:19.864Z,9.05
2023-03-16T00:42:19.905Z,8.95
2023-03-16T00:43:19.851Z,9.02
2023-03-16T00:44:19.831Z,9.07
2023-03-16T00:45:19.806Z,8.88
2023-03-16T00:46:19.841Z,9.03
2023-03-16T00:47:19.785Z,8.81
2023-03-16T00:48:19.766Z,9.12
2023-03-16T00:49:19.745Z,8.87
2023-03-16T00:50:19.745Z,8.68
2023-03-16T00:51:19.746Z,8.96
2023-03-16T00:52:19.715Z,9.03
2023-03-16T00:53:19.719Z,8.68
2023-03-16T00:54:19.702Z,8.92
2023-03-16T00:55:19.704Z,8.70
2023-03-16T00:56:19.697Z,8.75
2023-03-16T00:57:19.687Z,8.61
2023-03-16T00:58:19.700Z,9.01
2023-03-16T00:59:19.662Z,8.59
2023-03-16T01:00:19.661Z,8.60
2023-03-16T01:01:19.756Z,8.64
2023-03-16T01:02:19.622Z,8.70
2023-03-16T01:03:19.658Z,8.49
2023-03-16T01:04:19.613Z,8.38
2023-03-16T01:05:19.622Z,8.39
2023-03-16T01:06:19.626Z,8.43
2023-03-16T01:07:19.583Z,8.44
2023-03-16T01:08:19.564Z,8.63
2023-03-16T01:09:19.561Z,8.40
2023-03-16T01:10:19.554Z,8.45
2023-03-16T01:11:19.547Z,8.45
2023-03-16T01:12:19.562Z,8.59
2023-03-16T01:13:19.534Z,8.79
2023-03-16T01:14:19.525Z,8.59
2023-03-16T01:15:19.507Z,8.53
2023-03-16T01:16:19.543Z,8.76
2023-03-16T01:17:19.484Z,8.77
2023-03-16T01:18:19.473Z,8.76
2023-03-16T01:19:19.453Z,8.76
2023-03-16T01:20:19.500Z,8.76
2023-03-16T01:21:19.438Z,8.82
2023-03-16T01:22:19.446Z,8.76
2023-03-16T01:23:19.440Z,8.62
2023-03-16T01:24:19.397Z,8.57
2023-03-16T01:25:19.386Z,8.62
2023-03-16T01:26:19.413Z,8.86
2023-03-16T01:27:19.374Z,8.43
2023-03-16T01:28:19.351Z,8.48
2023-03-16T01:29:19.337Z,8.66
2023-03-16T01:30:19.323Z,8.54
2023-03-16T01:31:19.347Z,8.59
2023-03-16T01:32:19.306Z,8.49
2023-03-16T01:33:19.266Z,8.27
2023-03-16T01:34:19.265Z,8.24
2023-03-16T01:35:19.253Z,8.44
2023-03-16T01:36:19.242Z,8.31
2023-03-16T01:37:19.234Z,8.32
2023-03-16T01:38:19.214Z,8.12
2023-03-16T01:39:19.204Z,8.21
2023-03-16T01:40:19.186Z,8.44
2023-03-16T01:41:19.166Z,8.30
2023-03-16T01:42:19.171Z,8.20
2023-03-16T01:43:19.152Z,8.36
2023-03-16T01:44:19.145Z,8.05
2023-03-16T01:45:19.129Z,8.18
2023-03-16T01:46:19.155Z,8.31
2023-03-16T01:47:19.100Z,8.28
2023-03-16T01:48:19.094Z,8.10
2023-03-16T01:49:19.074Z,8.30
2023-03-16T01:50:19.063Z,8.07
2023-03-16T01:51:19.043Z,8.16
2023-03-16T01:52:19.058Z,8.31
2023-03-16T01:53:19.025Z,8.05
2023-03-16T01:54:19.034Z,8.04
2023-03-16T01:55:19.024Z,7.97
2023-03-16T01:56:18.983Z,8.10
2023-03-16T01:57:18.988Z,7.96
2023-03-16T01:58:18.971Z,7.97
2023-03-16T01:59:18.963Z,8.17
2023-03-16T02:00:20.014Z,7.88
2023-03-16T02:01:18.973Z,7.94
2023-03-16T02:02:18.921Z,7.85
2023-03-16T02:03:18.900Z,7.94
2023-03-16T02:04:18.923Z,7.81
2023-03-16T02:05:18.859Z,7.86
2023-03-16T02:06:18.842Z,7.89
2023-03-16T02:07:18.833Z,7.82
2023-03-16T02:08:18.818Z,7.77
2023-03-16T02:09:18.793Z,7.79
2023-03-16T02:10:18.783Z,7.86
2023-03-16T02:11:18.783Z,7.83
2023-03-16T02:12:18.786Z,7.77
2023-03-16T02:13:18.732Z,7.79
2023-03-16T02:14:18.716Z,7.75
2023-03-16T02:15:18.704Z,7.86
2023-03-16T02:16:18.726Z,7.83
2023-03-16T02:17:18.670Z,7.63
2023-03-16T02:18:18.652Z,7.46
2023-03-16T02:19:18.648Z,7.65
2023-03-16T02:20:18.641Z,7.64
2023-03-16T02:21:18.661Z,7.77
2023-03-16T02:22:18.615Z,7.58
2023-03-16T02:23:18.709Z,7.77
2023-03-16T02:24:18.576Z,7.78
2023-03-16T02:25:18.561Z,7.77
2023-03-16T02:26:18.556Z,7.62
2023-03-16T02:27:18.557Z,7.77
2023-03-16T02:28:18.514Z,7.73
2023-03-16T02:29:18.493Z,7.60
2023-03-16T02:30:18.505Z,7.50
2023-03-16T02:31:18.531Z,7.61
2023-03-16T02:32:18.454Z,7.61
2023-03-16T02:33:18.445Z,7.50
2023-03-16T02:34:18.438Z,7.52
2023-03-16T02:35:18.424Z,7.66
2023-03-16T02:36:18.414Z,7.57
2023-03-16T02:37:18.424Z,7.42
2023-03-16T02:38:18.410Z,7.35
2023-03-16T02:39:18.375Z,7.39
2023-03-16T02:40:18.384Z,7.61
2023-03-16T02:41:18.360Z,7.34
2023-03-16T02:42:18.352Z,7.40
2023-03-16T02:43:18.366Z,7.47
2023-03-16T02:44:18.326Z,7.48
2023-03-16T02:45:18.313Z,7.41
2023-03-16T02:46:18.333Z,7.51
2023-03-16T02:47:18.302Z,7.39
2023-03-16T02:48:18.295Z,7.49
2023-03-16T02:49:18.265Z,7.23
2023-03-16T02:50:18.259Z,7.32
2023-03-16T02:51:18.234Z,7.28
2023-03-16T02:52:18.233Z,7.30
2023-03-16T02:53:18.227Z,7.48
2023-03-16T02:54:18.220Z,7.20
2023-03-16T02:55:18.190Z,7.25
2023-03-16T02:56:18.182Z,7.31
2023-03-16T02:57:18.168Z,7.25
2023-03-16T02:58:18.156Z,7.19
2023-03-16T02:59:18.152Z,7.14
2023-03-16T03:00:18.134Z,7.16
2023-03-16T03:01:18.126Z,7.14
2023-03-16T03:02:18.144Z,7.33
2023-03-16T03:03:18.203Z,7.16
2023-03-16T03:04:18.116Z,7.28
2023-03-16T03:05:18.086Z,7.07
2023-03-16T03:06:18.061Z,7.04
2023-03-16T03:07:18.066Z,7.18
2023-03-16T03:08:18.048Z,7.20
2023-03-16T03:09:18.041Z,6.95
2023-03-16T03:10:18.051Z,6.93
2023-03-16T03:11:18.023Z,6.99
2023-03-16T03:12:18.027Z,6.99
2023-03-16T03:13:18.011Z,6.88
2023-03-16T03:14:17.981Z,7.15
2023-03-16T03:15:18.028Z,6.84
2023-03-16T03:16:18.021Z,7.16
2023-03-16T03:17:17.976Z,6.97
2023-03-16T03:18:17.945Z,7.08
2023-03-16T03:19:17.941Z,6.83
2023-03-16T03:20:17.917Z,7.03
2023-03-16T03:21:17.922Z,7.02
2023-03-16T03:22:17.908Z,6.85
2023-03-16T03:23:17.911Z,7.05
2023-03-16T03:24:17.899Z,6.91
2023-03-16T03:25:17.884Z,6.88
2023-03-16T03:26:17.884Z,6.80
2023-03-16T03:27:17.882Z,6.97
2023-03-16T03:28:17.865Z,7.00
2023-03-16T03:29:17.844Z,6.82
2023-03-16T03:30:17.858Z,6.71
2023-03-16T03:31:17.857Z,6.77
2023-03-16T03:32:17.822Z,6.82
2023-03-16T03:33:17.819Z,6.78
2023-03-16T03:34:17.801Z,6.84
2023-03-16T03:35:17.780Z,6.67
2023-03-16T03:36:17.774Z,6.92
2023-03-16T03:37:17.779Z,6.76
2023-03-16T03:38:17.753Z,6.68
2023-03-16T03:39:17.761Z,6.70
2023-03-16T03:40:17.745Z,6.74
2023-03-16T03:41:17.715Z,6.76
2023-03-16T03:42:17.710Z,6.69
2023-03-16T03:43:17.687Z,6.77
2023-03-16T03:44:17.693Z,6.66
2023-03-16T03:45:17.670Z,6.58
2023-03-16T03:46:17.810Z,6.78
2023-03-16T03:47:17.661Z,6.52
2023-03-16T03:48:17.621Z,6.50
2023-03-16T03:49:17.618Z,6.59
2023-03-16T03:50:17.603Z,6.50
2023-03-16T03:51:17.595Z,6.63
2023-03-16T03:52:17.584Z,6.53
2023-03-16T03:53:17.586Z,6.41
2023-03-16T03:54:17.581Z,6.46
2023-03-16T03:55:17.561Z,6.55
2023-03-16T03:56:17.564Z,6.64
2023-03-16T03:57:17.547Z,6.45
2023-03-16T03:58:17.535Z,6.45
2023-03-16T03:59:17.552Z,6.40
2023-03-16T04:00:17.520Z,6.41
2023-03-16T04:01:17.528Z,6.42
2023-03-16T04:02:17.634Z,6.42
2023-03-16T04:03:17.752Z,6.44
2023-03-16T04:04:17.505Z,6.46
2023-03-16T04:05:17.489Z,6.37
2023-03-16T04:06:17.471Z,6.39
2023-03-16T04:07:17.464Z,6.55
2023-03-16T04:08:17.448Z,6.27
2023-03-16T04:09:17.456Z,6.27
2023-03-16T04:10:17.425Z,6.36
2023-03-16T04:11:17.415Z,6.34
2023-03-16T04:12:17.404Z,6.33
2023-03-16T04:13:17.408Z,6.39
2023-03-16T04:14:17.404Z,6.26
2023-03-16T04:15:17.395Z,6.26
2023-03-16T04:16:17.437Z,6.14
2023-03-16T04:17:17.397Z,6.16
2023-03-16T04:18:17.367Z,6.18
2023-03-16T04:19:17.383Z,6.19
2023-03-16T04:20:17.354Z,6.27
2023-03-16T04:21:17.356Z,6.33
2023-03-16T04:22:17.358Z,6.16
2023-03-16T04:23:17.346Z,6.28
2023-03-16T04:24:17.351Z,6.15
2023-03-16T04:25:17.343Z,6.22
2023-03-16T04:26:17.315Z,6.20
2023-03-16T04:27:17.324Z,6.27
2023-03-16T04:28:17.295Z,6.16
2023-03-16T04:29:17.293Z,6.08
2023-03-16T04:30:17.270Z,6.10
2023-03-16T04:31:17.319Z,6.10
2023-03-16T04:32:17.257Z,6.15
2023-03-16T04:33:17.250Z,5.99
2023-03-16T04:34:17.244Z,6.11
2023-03-16T04:35:17.238Z,6.07
2023-03-16T04:36:17.242Z,6.18
2023-03-16T04:37:17.230Z,6.00
2023-03-16T04:38:17.223Z,5.93
2023-03-16T04:39:17.201Z,5.97
2023-03-16T04:40:17.199Z,5.92
2023-03-16T04:41:17.191Z,6.12
2023-03-16T04:42:17.180Z,6.13
2023-03-16T04:43:17.183Z,5.95
2023-03-16T04:44:17.165Z,5.99
2023-03-16T04:45:17.162Z,5.78
2023-03-16T04:46:17.233Z,5.79
2023-03-16T04:47:17.148Z,5.82
2023-03-16T04:48:17.138Z,5.85
2023-03-16T04:49:17.156Z,5.86
2023-03-16T04:50:17.125Z,5.96
2023-03-16T04:51:17.147Z,5.99
2023-03-16T04:52:17.112Z,5.86
2023-03-16T04:53:17.156Z,5.94
2023-03-16T04:54:17.110Z,5.80
2023-03-16T04:55:17.127Z,5.95
2023-03-16T04:56:17.138Z,5.90
2023-03-16T04:57:17.137Z,5.91
2023-03-16T04:58:17.146Z,5.80
2023-03-16T04:59:17.085Z,5.73
2023-03-16T05:00:17.084Z,5.90
2023-03-16T05:01:17.191Z,5.85
2023-03-16T05:02:17.062Z,5.77
2023-03-16T05:03:17.073Z,5.76
2023-03-16T05:04:19.401Z,5.72
2023-03-16T05:05:17.077Z,5.76
2023-03-16T05:06:17.044Z,5.92
2023-03-16T05:07:17.042Z,5.60
2023-03-16T05:08:17.053Z,5.75
2023-03-16T05:09:17.039Z,5.61
2023-03-16T05:10:17.044Z,5.64
2023-03-16T05:11:17.022Z,5.66
2023-03-16T05:12:17.011Z,5.53
2023-03-16T05:13:17.001Z,5.71
2023-03-16T05:14:17.012Z,5.80
2023-03-16T05:15:17.042Z,5.68
2023-03-16T05:16:17.101Z,5.61
2023-03-16T05:17:16.993Z,5.51
2023-03-16T05:18:17.003Z,5.58
2023-03-16T05:19:16.980Z,5.57
2023-03-16T05:20:16.972Z,5.65
2023-03-16T05:21:16.996Z,5.64
2023-03-16T05:22:16.948Z,5.53
2023-03-16T05:23:16.944Z,5.58
2023-03-16T05:24:16.934Z,5.48
2023-03-16T05:25:16.950Z,5.61
2023-03-16T05:26:16.938Z,5.46
2023-03-16T05:27:16.942Z,5.48
2023-03-16T05:28:16.935Z,5.63
2023-03-16T05:29:16.956Z,5.55
2023-03-16T05:30:16.933Z,5.49
2023-03-16T05:31:16.958Z,5.51
2023-03-16T05:32:16.908Z,5.44
2023-03-16T05:33:16.903Z,5.47
2023-03-16T05:34:16.895Z,5.36
2023-03-16T05:35:16.934Z,5.36
2023-03-16T05:36:16.916Z,5.39
2023-03-16T05:37:16.895Z,5.49
2023-03-16T05:38:16.887Z,5.42
2023-03-16T05:39:16.906Z,5.29
2023-03-16T05:40:16.967Z,5.20
2023-03-16T05:41:16.895Z,5.35
2023-03-16T05:42:16.877Z,5.30
2023-03-16T05:43:16.882Z,5.36
2023-03-16T05:44:16.872Z,5.32
2023-03-16T05:45:16.901Z,5.36
2023-03-16T05:46:18.457Z,5.19
2023-03-16T05:47:16.892Z,5.20
2023-03-16T05:48:16.860Z,5.23
2023-03-16T05:49:16.856Z,5.24
2023-03-16T05:50:16.976Z,5.27
2023-03-16T05:51:16.854Z,5.39
2023-03-16T05:52:16.839Z,5.33
2023-03-16T05:53:16.842Z,5.34
2023-03-16T05:54:16.848Z,5.26
2023-03-16T05:55:16.829Z,5.36
2023-03-16T05:56:16.835Z,5.16
2023-03-16T05:57:16.819Z,5.11
2023-03-16T05:58:16.824Z,5.35
2023-03-16T05:59:16.816Z,5.19
2023-03-16T06:00:16.959Z,5.22
2023-03-16T06:01:16.798Z,5.07
2023-03-16T06:02:16.790Z,5.07
2023-03-16T06:03:16.883Z,5.10
2023-03-16T06:04:16.848Z,5.14
2023-03-16T06:05:16.754Z,5.19
2023-03-16T06:06:16.742Z,5.06
2023-03-16T06:07:16.738Z,5.09
2023-03-16T06:08:16.757Z,5.19
2023-03-16T06:09:16.718Z,5.04
2023-03-16T06:10:16.713Z,4.93
2023-03-16T06:11:16.700Z,4.97
2023-03-16T06:12:16.696Z,4.97
2023-03-16T06:13:16.680Z,4.82
2023-03-16T06:14:16.681Z,4.99
2023-03-16T06:15:16.670Z,5.07
2023-03-16T06:16:16.717Z,4.95
2023-03-16T06:17:16.629Z,5.10
2023-03-16T06:18:16.647Z,5.05
2023-03-16T06:19:16.621Z,4.96
2023-03-16T06:20:16.610Z,4.88
2023-03-16T06:21:16.650Z,4.75
2023-03-16T06:22:16.642Z,4.88
2023-03-16T06:23:16.578Z,4.95
2023-03-16T06:24:16.575Z,4.86
2023-03-16T06:25:16.577Z,4.86
2023-03-16T06:26:16.558Z,4.77
2023-03-16T06:27:16.548Z,4.94
2023-03-16T06:28:16.535Z,4.78
2023-03-16T06:29:16.535Z,4.81
2023-03-16T06:30:16.530Z,4.90
2023-03-16T06:31:16.540Z,4.68
2023-03-16T06:32:16.497Z,4.57
2023-03-16T06:33:16.534Z,4.31
2023-03-16T06:34:16.501Z,4.34
2023-03-16T06:35:16.487Z,4.36
2023-03-16T06:36:16.492Z,4.76
2023-03-16T06:37:16.459Z,4.33
2023-03-16T06:38:16.434Z,4.56
2023-03-16T06:39:16.424Z,4.93
2023-03-16T06:40:16.421Z,5.02
2023-03-16T06:41:16.389Z,5.51
2023-03-16T06:42:16.385Z,5.99
2023-03-16T06:43:16.363Z,6.44
2023-03-16T06:44:16.339Z,6.70
2023-03-16T06:45:16.327Z,6.88
2023-03-16T06:46:16.344Z,7.27
2023-03-16T06:47:16.280Z,7.22
2023-03-16T06:48:16.257Z,7.50
2023-03-16T06:50:16.233Z,7.78
2023-03-16T06:51:16.905Z,8.49
2023-03-16T06:52:16.175Z,8.56
2023-03-16T06:53:16.187Z,8.64
2023-03-16T06:54:16.211Z,5.52
2023-03-16T06:55:16.170Z,3.41
2023-03-16T06:56:16.176Z,2.54
2023-03-16T06:57:16.405Z,1.93
2023-03-16T06:58:16.185Z,1.56
2023-03-16T06:59:16.186Z,1.27
2023-03-16T07:00:16.314Z,0.96
2023-03-16T07:01:16.302Z,0.77
2023-03-16T07:02:16.276Z,0.65
2023-03-16T07:03:16.322Z,0.55
2023-03-16T07:04:16.464Z,0.57
2023-03-16T07:05:16.368Z,0.58
2023-03-16T07:06:16.401Z,0.61
2023-03-16T07:07:16.410Z,0.61
2023-03-16T07:09:16.440Z,0.64
2023-03-16T07:10:16.431Z,0.66
2023-03-16T07:11:16.428Z,0.69
2023-03-16T07:12:16.503Z,0.75
2023-03-16T07:13:16.456Z,0.77
2023-03-16T07:14:16.466Z,0.86
2023-03-16T07:15:16.456Z,0.90
2023-03-16T07:16:16.531Z,0.98
2023-03-16T07:17:16.504Z,1.05
2023-03-16T07:18:16.454Z,1.15
2023-03-16T07:19:16.490Z,1.23
2023-03-16T07:20:16.474Z,1.35
2023-03-16T07:21:16.429Z,1.45
2023-03-16T07:22:16.433Z,1.46
2023-03-16T07:23:16.410Z,1.48
2023-03-16T07:24:16.404Z,1.56
2023-03-16T07:25:16.387Z,1.75
2023-03-16T07:26:16.370Z,2.05
2023-03-16T07:27:16.363Z,2.27
2023-03-16T07:28:16.341Z,2.40
2023-03-16T07:29:16.339Z,2.56
2023-03-16T07:30:16.329Z,2.80
2023-03-16T07:31:16.400Z,2.91
2023-03-16T07:32:16.292Z,3.01
2023-03-16T07:33:16.277Z,3.09
2023-03-16T07:34:16.271Z,3.22
2023-03-16T07:35:16.248Z,3.20
2023-03-16T07:36:16.305Z,3.17
2023-03-16T07:37:17.192Z,3.11
2023-03-16T07:38:16.230Z,3.15
2023-03-16T07:39:16.179Z,3.08
2023-03-16T07:40:16.179Z,2.88
2023-03-16T07:41:16.181Z,2.91
2023-03-16T07:42:16.155Z,2.78
2023-03-16T07:43:16.106Z,2.72
2023-03-16T07:44:16.064Z,2.01
2023-03-16T07:45:16.068Z,1.61
2023-03-16T07:46:16.082Z,1.19
2023-03-16T07:47:16.050Z,1.07
2023-03-16T07:48:16.051Z,1.11
2023-03-16T07:49:16.061Z,1.19
2023-03-16T07:50:16.051Z,1.20
2023-03-16T07:51:16.043Z,1.26
2023-03-16T07:52:16.163Z,1.40
2023-03-16T07:53:16.023Z,1.53
2023-03-16T07:54:16.026Z,1.65
2023-03-16T07:55:15.972Z,1.71
2023-03-16T07:56:15.980Z,1.84
2023-03-16T07:57:15.982Z,1.98
2023-03-16T07:58:15.918Z,2.06
2023-03-16T07:59:15.916Z,2.14
2023-03-16T08:00:15.901Z,2.24
2023-03-16T08:01:15.865Z,2.34
2023-03-16T08:02:15.908Z,2.40
2023-03-16T08:03:15.860Z,2.48
2023-03-16T08:04:15.783Z,2.53
2023-03-16T08:05:15.851Z,2.55
2023-03-16T08:06:15.739Z,2.69
2023-03-16T08:07:15.766Z,2.73
2023-03-16T08:08:15.715Z,2.69
2023-03-16T08:09:15.671Z,2.74
2023-03-16T08:10:15.647Z,2.83
2023-03-16T08:11:15.622Z,2.81
2023-03-16T08:12:15.591Z,2.94
2023-03-16T08:13:15.573Z,2.89
2023-03-16T08:14:15.535Z,2.95
2023-03-16T08:15:15.562Z,3.01
2023-03-16T08:16:15.572Z,2.96
2023-03-16T08:17:15.498Z,2.87
2023-03-16T08:18:15.466Z,2.87
2023-03-16T08:19:15.413Z,2.91
2023-03-16T08:20:15.382Z,2.97
2023-03-16T08:21:15.397Z,2.93
2023-03-16T08:22:15.391Z,3.42
2023-03-16T08:23:15.330Z,3.46
2023-03-16T08:24:15.279Z,3.71
2023-03-16T08:25:15.311Z,4.17
2023-03-16T08:26:15.241Z,4.55
2023-03-16T08:27:15.188Z,4.89
2023-03-16T08:28:15.193Z,4.87
2023-03-16T08:29:15.200Z,4.30
2023-03-16T08:30:15.124Z,4.21
2023-03-16T08:31:15.107Z,4.21
2023-03-16T08:32:15.042Z,4.13
2023-03-16T08:33:15.017Z,4.09
2023-03-16T08:34:14.987Z,4.22
2023-03-16T08:35:14.948Z,4.22
2023-03-16T08:36:14.959Z,4.23
2023-03-16T08:37:14.912Z,4.30
2023-03-16T08:38:14.883Z,2.93
2023-03-16T08:39:14.836Z,3.04
2023-03-16T08:40:14.836Z,2.69
2023-03-16T08:41:14.796Z,2.79
2023-03-16T08:42:14.775Z,2.95
2023-03-16T08:43:14.737Z,3.03
2023-03-16T08:44:14.711Z,3.01
2023-03-16T08:45:14.671Z,2.89
2023-03-16T08:46:14.673Z,2.79
2023-03-16T08:47:14.594Z,2.60
2023-03-16T08:48:14.568Z,2.57
2023-03-16T08:49:14.551Z,2.60
2023-03-16T08:50:14.485Z,2.62
2023-03-16T08:51:14.501Z,2.67
2023-03-16T08:52:14.424Z,2.66
2023-03-16T08:53:14.400Z,2.54
2023-03-16T08:54:14.378Z,2.51
2023-03-16T08:55:14.348Z,2.45
2023-03-16T08:56:14.307Z,2.52
2023-03-16T08:57:14.281Z,2.51
2023-03-16T08:58:14.235Z,2.52
2023-03-16T08:59:27.418Z,2.58
2023-03-16T09:00:15.194Z,2.52
2023-03-16T09:01:14.133Z,2.52
2023-03-16T09:02:14.170Z,2.41
2023-03-16T09:03:14.048Z,2.29
2023-03-16T09:04:14.114Z,2.29
2023-03-16T09:05:13.992Z,2.28
2023-03-16T09:06:13.954Z,2.26
2023-03-16T09:07:13.911Z,2.24
2023-03-16T09:08:13.885Z,2.28
2023-03-16T09:09:13.841Z,2.30
2023-03-16T09:10:13.868Z,2.34
2023-03-16T09:11:13.793Z,2.25
2023-03-16T09:12:13.737Z,2.20
2023-03-16T09:13:13.713Z,2.24
2023-03-16T09:14:13.671Z,2.20
2023-03-16T09:15:13.639Z,2.26
2023-03-16T09:16:13.619Z,2.30
2023-03-16T09:17:13.551Z,2.35
2023-03-16T09:18:13.490Z,2.33
2023-03-16T09:19:13.493Z,2.10
2023-03-16T09:20:29.602Z,1.98
2023-03-16T09:21:14.397Z,1.98
2023-03-16T09:22:13.348Z,1.87
2023-03-16T09:23:13.290Z,1.71
2023-03-16T09:24:13.279Z,1.63
2023-03-16T09:25:13.200Z,1.65
2023-03-16T09:26:13.202Z,1.68
2023-03-16T09:27:13.305Z,1.74
2023-03-16T09:28:13.087Z,1.86
2023-03-16T09:29:13.055Z,1.87
2023-03-16T09:30:13.036Z,1.94
2023-03-16T09:31:12.987Z,2.06
2023-03-16T09:32:12.979Z,1.78
2023-03-16T09:33:12.953Z,1.58
2023-03-16T09:34:12.879Z,1.65
2023-03-16T09:35:12.828Z,1.70
2023-03-16T09:36:12.825Z,1.71
2023-03-16T09:37:12.760Z,1.49
2023-03-16T09:38:12.769Z,1.46
2023-03-16T09:39:12.688Z,1.40
2023-03-16T09:40:12.643Z,1.19
2023-03-16T09:41:12.628Z,1.03
2023-03-16T09:42:12.594Z,0.86
2023-03-16T09:43:12.528Z,0.81
2023-03-16T09:44:12.540Z,0.75
2023-03-16T09:45:12.482Z,0.68
2023-03-16T09:46:12.472Z,0.64
2023-03-16T09:47:12.379Z,0.56
2023-03-16T09:48:12.389Z,0.55
2023-03-16T09:49:12.343Z,0.58
2023-03-16T09:50:12.363Z,0.59
2023-03-16T09:51:12.254Z,0.53
2023-03-16T09:52:12.223Z,0.47
2023-03-16T09:53:12.227Z,0.38
2023-03-16T09:54:12.189Z,0.34
2023-03-16T09:55:12.213Z,0.34
2023-03-16T09:56:12.133Z,0.34
2023-03-16T09:57:12.159Z,0.34
2023-03-16T09:58:12.138Z,0.34
2023-03-16T09:59:12.118Z,0.34
2023-03-16T10:00:12.140Z,0.34
2023-03-16T10:01:12.144Z,0.34
2023-03-16T10:02:12.102Z,0.34
2023-03-16T10:03:12.112Z,0.34
2023-03-16T10:04:12.161Z,0.34
2023-03-16T10:05:12.170Z,0.34
2023-03-16T10:06:12.134Z,0.34
2023-03-16T10:07:12.148Z,0.34
2023-03-16T10:08:12.176Z,0.34
2023-03-16T10:09:12.188Z,0.34
2023-03-16T10:10:12.209Z,0.34
2023-03-16T10:11:12.156Z,0.34
2023-03-16T10:12:12.177Z,0.34
2023-03-16T10:13:12.192Z,0.34
2023-03-16T10:14:12.188Z,0.35
2023-03-16T10:15:12.270Z,0.41
2023-03-16T10:16:12.255Z,0.50
2023-03-16T10:17:12.241Z,0.50
2023-03-16T10:18:13.495Z,0.50
2023-03-16T10:19:12.283Z,0.52
2023-03-16T10:20:12.284Z,0.51
2023-03-16T10:21:12.324Z,0.51
2023-03-16T10:22:12.367Z,0.51
2023-03-16T10:23:12.345Z,0.52
2023-03-16T10:24:12.343Z,0.60
2023-03-16T10:25:12.394Z,0.71
2023-03-16T10:26:12.365Z,0.75
2023-03-16T10:27:12.400Z,0.81
2023-03-16T10:28:12.380Z,0.62
2023-03-16T10:29:12.410Z,0.55
2023-03-16T10:30:12.430Z,0.59
2023-03-16T10:31:12.473Z,0.59
2023-03-16T10:32:12.439Z,0.61
2023-03-16T10:33:12.489Z,0.64
2023-03-16T10:34:12.445Z,0.65
2023-03-16T10:35:12.501Z,0.64
2023-03-16T10:36:12.550Z,0.64
2023-03-16T10:37:12.501Z,0.55
2023-03-16T10:38:13.522Z,0.54
2023-03-16T10:39:12.512Z,0.56
2023-03-16T10:40:12.573Z,0.56
2023-03-16T10:41:12.536Z,0.57
2023-03-16T10:42:12.550Z,0.58
2023-03-16T10:43:12.548Z,0.65
2023-03-16T10:44:12.549Z,0.83
2023-03-16T10:45:12.546Z,0.91
2023-03-16T10:46:14.767Z,0.94
2023-03-16T10:47:12.668Z,1.13
2023-03-16T10:48:12.582Z,1.22
2023-03-16T10:49:12.585Z,1.22
2023-03-16T10:50:12.586Z,1.22
2023-03-16T10:51:12.569Z,1.25
2023-03-16T10:52:12.562Z,1.39
2023-03-16T10:53:12.519Z,1.67
2023-03-16T10:54:12.521Z,2.04
2023-03-16T10:55:12.500Z,2.25
2023-03-16T10:56:12.474Z,2.58
2023-03-16T10:57:12.449Z,2.66
2023-03-16T10:58:12.436Z,2.93
2023-03-16T10:59:12.425Z,3.66
2023-03-16T11:00:12.413Z,4.45
2023-03-16T11:01:12.432Z,4.97
2023-03-16T11:02:12.359Z,5.28
2023-03-16T11:03:12.337Z,5.86
2023-03-16T11:04:12.366Z,6.34
2023-03-16T11:05:12.322Z,5.94
2023-03-16T11:06:12.295Z,6.42
2023-03-16T11:07:12.254Z,6.63
2023-03-16T11:08:12.318Z,6.04
2023-03-16T11:09:12.277Z,7.29
2023-03-16T11:10:12.217Z,8.48
2023-03-16T11:11:12.200Z,8.96
2023-03-16T11:12:12.191Z,9.51
2023-03-16T11:13:12.164Z,10.03
2023-03-16T11:14:12.159Z,10.42
2023-03-16T11:15:23.563Z,9.34
2023-03-16T11:16:13.172Z,8.16
2023-03-16T11:17:12.076Z,8.08
2023-03-16T11:18:12.060Z,7.40
2023-03-16T11:19:12.057Z,7.45
2023-03-16T11:20:12.032Z,6.12
2023-03-16T11:21:12.010Z,6.03
2023-03-16T11:22:11.979Z,5.65
2023-03-16T11:23:11.959Z,5.34
2023-03-16T11:24:11.955Z,4.93
2023-03-16T11:25:11.931Z,4.55
2023-03-16T11:26:11.904Z,3.94
2023-03-16T11:27:11.917Z,3.83
2023-03-16T11:28:11.941Z,4.29
2023-03-16T11:29:11.853Z,4.99
2023-03-16T11:30:11.828Z,6.03
2023-03-16T11:31:11.910Z,6.06
2023-03-16T11:32:13.529Z,6.33
2023-03-16T11:33:11.810Z,7.38
2023-03-16T11:34:11.750Z,9.47
2023-03-16T11:35:11.758Z,15.52
2023-03-16T11:36:11.737Z,16.45
2023-03-16T12:14:10.726Z,88.53
2023-03-16T12:32:10.406Z,14.31
2023-03-16T12:33:10.371Z,16.71
2023-03-16T12:34:10.354Z,18.42
2023-03-16T12:35:11.775Z,18.43
2023-03-16T12:36:10.324Z,18.77
2023-03-16T12:37:10.300Z,19.47
2023-03-16T12:38:10.267Z,21.48
2023-03-16T12:39:10.250Z,25.52
2023-03-16T12:40:10.211Z,24.50
2023-03-16T12:41:10.183Z,24.94
2023-03-16T12:42:10.167Z,25.18
2023-03-16T12:43:10.131Z,25.35
2023-03-16T12:44:10.188Z,23.62
2023-03-16T12:45:10.081Z,19.11
2023-03-16T12:46:10.124Z,12.90
2023-03-16T12:47:10.052Z,14.45
2023-03-16T12:48:10.023Z,13.39
2023-03-16T12:49:10.030Z,13.63
2023-03-16T12:50:09.966Z,15.79
2023-03-16T12:51:09.949Z,16.72
2023-03-16T12:52:11.349Z,18.74
2023-03-16T12:53:09.913Z,22.63
2023-03-16T12:54:09.868Z,27.21
2023-03-16T12:55:09.863Z,27.31
2023-03-16T12:56:09.833Z,27.88
2023-03-16T12:57:09.821Z,29.50
2023-03-16T12:58:09.789Z,31.27
2023-03-16T12:59:09.750Z,38.10
2023-03-16T13:00:09.730Z,36.73
2023-03-16T13:01:09.720Z,38.64
2023-03-16T13:02:09.701Z,35.03
2023-03-16T13:03:09.640Z,37.54
2023-03-16T13:04:09.662Z,39.94
2023-03-16T13:05:09.570Z,44.72
2023-03-16T13:06:09.560Z,47.68
2023-03-16T13:07:09.543Z,47.81
2023-03-16T13:08:09.478Z,46.87
2023-03-16T13:09:09.486Z,49.36
2023-03-16T13:10:09.432Z,50.00
2023-03-16T13:11:09.424Z,55.94
2023-03-16T13:12:09.396Z,63.35
2023-03-16T13:13:09.368Z,64.22
2023-03-16T13:14:09.346Z,62.69
2023-03-16T13:15:09.314Z,64.95
2023-03-16T13:16:09.431Z,63.98
2023-03-16T13:17:09.268Z,67.79
2023-03-16T13:18:09.194Z,72.14
2023-03-16T13:19:09.168Z,74.34
2023-03-16T13:20:11.824Z,77.78
2023-03-16T13:21:09.125Z,75.67
2023-03-16T13:22:09.090Z,74.55
2023-03-16T13:23:09.070Z,82.77
2023-03-16T13:24:09.029Z,83.00
2023-03-16T13:25:09.041Z,81.16
2023-03-16T13:26:08.974Z,79.58
2023-03-16T13:27:08.949Z,83.65
2023-03-16T13:28:08.918Z,80.31
2023-03-16T13:29:08.893Z,85.89
2023-03-16T13:30:08.864Z,90.68
2023-03-16T13:31:08.841Z,87.49
2023-03-16T13:32:08.821Z,88.20
2023-03-16T13:33:08.806Z,85.89
2023-03-16T13:34:08.760Z,85.51
2023-03-16T13:35:08.724Z,86.47
2023-03-16T13:36:08.757Z,86.65
2023-03-16T13:37:08.665Z,86.62
2023-03-16T13:38:08.622Z,86.70
2023-03-16T13:39:08.603Z,86.65
2023-03-16T13:40:08.554Z,88.19
2023-03-16T13:41:08.533Z,91.14
2023-03-16T13:42:08.512Z,94.41
2023-03-16T13:46:44.437Z,0.50
2023-03-16T16:56:40.179Z,0.66
2023-03-16T16:57:40.171Z,0.66
2023-03-16T16:58:40.152Z,0.65
2023-03-16T16:59:40.124Z,0.65
2023-03-16T17:00:40.116Z,0.65
2023-03-16T17:01:40.102Z,0.65
2023-03-16T17:02:42.077Z,0.65
2023-03-16T17:03:40.078Z,0.65
2023-03-16T17:04:40.149Z,0.65
2023-03-16T17:05:40.069Z,0.65
2023-03-16T17:06:40.055Z,0.65
2023-03-16T17:07:40.026Z,0.64
2023-03-16T17:08:40.019Z,0.64
2023-03-16T17:09:40.023Z,0.64
2023-03-16T17:10:40.009Z,0.64
2023-03-16T17:11:39.995Z,0.63
2023-03-16T17:12:39.985Z,0.63
2023-03-16T17:13:39.963Z,0.64
2023-03-16T17:14:39.942Z,0.64
2023-03-16T17:15:39.937Z,0.63
2023-03-16T17:16:39.954Z,0.63
2023-03-16T17:17:39.920Z,0.63
2023-03-16T17:18:39.904Z,0.64
2023-03-16T17:19:39.893Z,0.62
2023-03-16T17:20:39.878Z,0.63
2023-03-16T17:21:39.860Z,0.64
2023-03-16T17:22:39.842Z,0.64
2023-03-16T17:23:39.837Z,0.64